Lille, Maine
Current Conditions -  °F | °C
As of 4:53 PM on Monday 20 Oct 2014 (Local Time) from KFVE Reporting Station
Clear Clear  
Wind Chill: 32°   Ceiling: Unl
Heat Index: 40°   Visibility: 10mi
Dew Point: 23°   Wind: 15mph
Humidity: 51%   Direction: 280°W
Pressure: 29.79"   Gusts: 24mph
Location:  47.2307°N, 68.1312°W
Report Text: KFVE 202053Z AUTO 28013G21KT 10SM CLR 04/M05 A2979 RMK AO2 SLP095 T00441050 53011
Loading
Personal Weather Stations






























Interactive Weather Map
Tropical Storm Tracking
New forecast layout! Learn more

10-Day Weather Forecast

Advertisements
Track Severe Weather on mobile